Time;durP1;ratioP1;P1;durP2;ratioP2;P2;SDS_P1;SDS_P2;PMS_P1;PMS_P2;Temp;Humidity;BMP_temperature;BMP_pressure;BME280_temperature;BME280_humidity;BME280_pressure;Samples;Min_cycle;Max_cycle;Signal;HPM_P1;HPM_P2
2022/02/17 00:01:43;;;;;;;;;;;12.20;99.90;;;;;;6192349;23;19904;-88
2022/02/17 00:04:12;;;;;;;;;;;12.20;99.90;;;;;;6193145;23;19910;-86
2022/02/17 00:07:10;;;;;;;;;;;12.20;99.90;;;;;;6192718;23;19947;-88
2022/02/17 00:09:36;;;;;;;;;;;12.20;99.90;;;;;;6193523;23;20312;-87
2022/02/17 00:12:10;;;;;;;;;;;12.20;99.90;;;;;;6195329;23;19946;-88
2022/02/17 00:15:06;;;;;;;;;;;12.20;99.90;;;;;;6194582;23;19908;-89
2022/02/17 00:20:45;;;;;;;;;;;12.30;99.90;;;;;;6209725;23;20100;-86
2022/02/17 00:23:13;;;;;;;;;;;12.30;99.90;;;;;;6200439;23;20329;-87
2022/02/17 00:25:46;;;;;;;;;;;12.30;99.90;;;;;;6199066;23;19908;-85
2022/02/17 00:28:17;;;;;;;;;;;12.30;99.90;;;;;;6196635;23;20303;-87
2022/02/17 00:30:45;;;;;;;;;;;12.20;99.90;;;;;;6173330;23;19930;-88
2022/02/17 00:33:17;;;;;;;;;;;12.20;99.90;;;;;;6218308;23;19896;-91
2022/02/17 00:36:05;;;;;;;;;;;;;;;;;;;;;
2022/02/17 00:38:34;;;;;;;;;;;12.20;99.90;;;;;;6242928;23;19908;-89
2022/02/17 00:41:02;;;;;;;;;;;12.10;99.90;;;;;;6193953;23;19908;-88
2022/02/17 00:43:40;;;;;;;;;;;;;;;;;;;;;
2022/02/17 00:46:08;;;;;;;;;;;12.00;99.90;;;;;;6220729;23;20378;-88
2022/02/17 00:48:40;;;;;;;;;;;12.00;99.90;;;;;;6193803;23;19983;-89
2022/02/17 00:51:11;;;;;;;;;;;12.00;99.90;;;;;;6194711;23;19923;-88
2022/02/17 00:53:36;;;;;;;;;;;12.00;99.90;;;;;;6196921;23;19908;-88
2022/02/17 00:56:19;;;;;;;;;;;12.00;99.90;;;;;;6196042;23;20337;-88
2022/02/17 00:58:55;;;;;;;;;;;;;;;;;;;;;
2022/02/17 01:01:30;;;;;;;;;;;11.90;99.90;;;;;;6221110;23;19987;-89
2022/02/17 01:03:59;;;;;;;;;;;11.90;99.90;;;;;;6193889;23;19999;-88
2022/02/17 01:06:25;;;;;;;;;;;11.90;99.90;;;;;;6193834;23;19911;-88
2022/02/17 01:08:51;;;;;;;;;;;11.80;99.90;;;;;;6169065;23;19908;-88
2022/02/17 01:11:16;;;;;;;;;;;11.90;99.90;;;;;;6194639;23;19915;-88
2022/02/17 01:13:47;;;;;;;;;;;11.80;99.90;;;;;;6194298;23;19915;-87
2022/02/17 01:16:13;;;;;;;;;;;11.80;99.90;;;;;;6193709;23;19908;-87
2022/02/17 01:18:58;;;;;;;;;;;11.80;99.90;;;;;;6194111;23;20361;-89
2022/02/17 01:21:24;;;;;;;;;;;11.70;99.90;;;;;;6193547;23;19908;-87
2022/02/17 01:23:58;;;;;;;;;;;11.40;99.90;;;;;;6193516;23;20303;-88
2022/02/17 01:26:26;;;;;;;;;;;11.10;99.70;;;;;;6193405;23;20031;-87
2022/02/17 01:28:57;;;;;;;;;;;10.80;99.90;;;;;;6193829;23;19904;-88
2022/02/17 01:31:28;;;;;;;;;;;10.70;99.90;;;;;;6192813;23;19959;-86
2022/02/17 01:33:57;;;;;;;;;;;10.60;99.90;;;;;;6193078;23;19915;-89
2022/02/17 01:36:30;;;;;;;;;;;10.60;99.90;;;;;;6193279;23;19958;-87
2022/02/17 01:38:58;;;;;;;;;;;10.50;99.90;;;;;;6193793;23;20303;-88
2022/02/17 01:41:36;;;;;;;;;;;10.50;99.90;;;;;;6193041;23;19926;-89
2022/02/17 01:44:04;;;;;;;;;;;10.50;99.90;;;;;;6220101;23;19911;-88
2022/02/17 01:46:35;;;;;;;;;;;10.50;99.90;;;;;;6168404;23;19915;-87
2022/02/17 01:49:18;;;;;;;;;;;10.50;99.90;;;;;;6193563;23;20254;-88
2022/02/17 01:52:41;;;;;;;;;;;10.50;99.90;;;;;;6193431;23;19958;-88
2022/02/17 01:55:17;;;;;;;;;;;10.50;99.90;;;;;;6070026;23;19965;-88
2022/02/17 01:57:57;;;;;;;;;;;10.50;99.90;;;;;;6061648;23;20269;-88
2022/02/17 02:00:25;;;;;;;;;;;10.50;99.90;;;;;;6219627;23;19983;-88
2022/02/17 02:02:53;;;;;;;;;;;10.60;99.90;;;;;;6193794;23;19908;-89
2022/02/17 02:05:32;;;;;;;;;;;10.60;99.90;;;;;;6193273;23;20222;-89
2022/02/17 02:08:00;;;;;;;;;;;10.70;99.90;;;;;;6205503;23;19912;-88
2022/02/17 02:10:26;;;;;;;;;;;10.80;99.90;;;;;;6194976;23;19903;-88
2022/02/17 02:12:51;;;;;;;;;;;10.80;99.90;;;;;;6219617;23;19900;-88
2022/02/17 02:15:28;;;;;;;;;;;10.80;99.90;;;;;;6219166;23;19915;-90
2022/02/17 02:17:54;;;;;;;;;;;10.80;99.90;;;;;;6233685;23;19907;-89
2022/02/17 02:20:23;;;;;;;;;;;10.90;99.90;;;;;;6192980;23;19904;-88
2022/02/17 02:22:54;;;;;;;;;;;10.90;99.90;;;;;;6193445;23;19966;-90
2022/02/17 02:25:31;;;;;;;;;;;10.90;99.90;;;;;;6193616;23;19904;-89
2022/02/17 02:28:04;;;;;;;;;;;10.90;99.90;;;;;;6194037;23;19904;-88
2022/02/17 02:30:29;;;;;;;;;;;10.90;99.90;;;;;;6220435;23;19927;-88
2022/02/17 02:32:55;;;;;;;;;;;10.90;99.90;;;;;;6196342;23;19908;-89
2022/02/17 02:35:23;;;;;;;;;;;10.90;99.90;;;;;;6199243;23;19907;-90
2022/02/17 02:37:58;;;;;;;;;;;10.90;99.90;;;;;;6199253;23;19951;-87
2022/02/17 02:40:24;;;;;;;;;;;11.00;99.90;;;;;;6198774;23;20262;-88
2022/02/17 02:42:52;;;;;;;;;;;10.90;99.90;;;;;;6200519;23;19953;-88
2022/02/17 02:45:27;;;;;;;;;;;10.90;99.90;;;;;;6226855;23;20042;-88
2022/02/17 02:47:54;;;;;;;;;;;10.90;99.90;;;;;;6196185;23;19904;-88
2022/02/17 02:50:30;;;;;;;;;;;10.90;99.90;;;;;;6193001;23;19903;-89
2022/02/17 02:53:10;;;;;;;;;;;10.90;99.90;;;;;;6168785;23;19916;-88
2022/02/17 02:55:46;;;;;;;;;;;10.90;99.90;;;;;;6193462;23;19904;-89
2022/02/17 02:58:13;;;;;;;;;;;10.90;99.90;;;;;;6219546;23;20322;-87
2022/02/17 03:00:50;;;;;;;;;;;10.90;99.90;;;;;;6187568;23;20319;-88
2022/02/17 03:03:16;;;;;;;;;;;10.90;99.90;;;;;;6187787;23;19944;-88
2022/02/17 03:05:44;;;;;;;;;;;10.80;99.90;;;;;;6187539;23;19911;-89
2022/02/17 03:08:09;;;;;;;;;;;10.80;99.90;;;;;;6188875;23;19939;-88
2022/02/17 03:10:38;;;;;;;;;;;10.80;99.90;;;;;;6187382;23;19912;-88
2022/02/17 03:13:04;;;;;;;;;;;10.80;99.90;;;;;;6187132;23;19912;-89
2022/02/17 03:15:30;;;;;;;;;;;10.80;99.90;;;;;;6188053;23;19971;-89
2022/02/17 03:17:55;;;;;;;;;;;10.70;99.80;;;;;;6188052;23;19904;-88
2022/02/17 03:20:28;;;;;;;;;;;10.70;99.60;;;;;;6188146;23;19904;-88
2022/02/17 03:22:56;;;;;;;;;;;10.70;99.40;;;;;;6188410;23;19905;-88
2022/02/17 03:25:24;;;;;;;;;;;10.70;99.30;;;;;;6188663;23;19904;-87
2022/02/17 03:27:50;;;;;;;;;;;10.70;98.90;;;;;;6192956;23;19955;-85
2022/02/17 03:30:24;;;;;;;;;;;10.60;98.50;;;;;;6193916;23;19904;-85
2022/02/17 03:32:49;;;;;;;;;;;10.60;97.20;;;;;;6192178;23;19967;-87
2022/02/17 03:35:18;;;;;;;;;;;10.50;96.50;;;;;;6191927;23;19912;-86
2022/02/17 03:37:46;;;;;;;;;;;10.50;96.40;;;;;;6163434;23;19998;-90
2022/02/17 03:40:15;;;;;;;;;;;10.50;96.60;;;;;;6188125;23;19927;-87
2022/02/17 03:42:43;;;;;;;;;;;10.50;96.30;;;;;;6192355;23;19912;-88
2022/02/17 03:45:09;;;;;;;;;;;10.50;95.90;;;;;;6213757;23;19909;-87
2022/02/17 03:47:35;;;;;;;;;;;10.40;95.50;;;;;;6188644;23;19893;-89
2022/02/17 03:50:01;;;;;;;;;;;10.30;95.00;;;;;;6164134;23;19893;-88
2022/02/17 03:52:28;;;;;;;;;;;10.30;94.60;;;;;;6171416;23;19909;-87
2022/02/17 03:54:54;;;;;;;;;;;10.30;94.70;;;;;;6163778;23;20288;-89
2022/02/17 03:57:19;;;;;;;;;;;10.20;94.60;;;;;;6162033;23;19904;-89
2022/02/17 03:59:45;;;;;;;;;;;10.20;94.50;;;;;;6138070;23;19955;-88
2022/02/17 04:02:11;;;;;;;;;;;10.20;94.60;;;;;;6187636;23;19928;-88
2022/02/17 04:04:44;;;;;;;;;;;10.20;94.70;;;;;;6188459;23;19909;-88
2022/02/17 04:07:17;;;;;;;;;;;10.20;94.40;;;;;;6187120;23;19904;-88
2022/02/17 04:09:43;;;;;;;;;;;10.20;94.50;;;;;;6187285;23;20223;-88
2022/02/17 04:12:09;;;;;;;;;;;10.10;94.60;;;;;;6186960;23;19915;-88
2022/02/17 04:14:37;;;;;;;;;;;10.10;94.70;;;;;;6187818;23;20227;-89
2022/02/17 04:17:06;;;;;;;;;;;10.10;94.80;;;;;;6187432;23;20286;-88
2022/02/17 04:19:32;;;;;;;;;;;10.10;94.90;;;;;;6187185;23;19904;-89
2022/02/17 04:22:07;;;;;;;;;;;10.10;94.80;;;;;;6187432;23;20042;-89
2022/02/17 04:24:36;;;;;;;;;;;10.10;94.70;;;;;;6187358;23;20315;-88
2022/02/17 04:27:04;;;;;;;;;;;10.10;95.00;;;;;;6187174;23;19905;-89
2022/02/17 04:29:40;;;;;;;;;;;10.20;95.10;;;;;;6187122;23;19905;-89
2022/02/17 04:32:07;;;;;;;;;;;10.20;95.10;;;;;;6187508;23;19908;-88
2022/02/17 04:34:35;;;;;;;;;;;10.20;95.20;;;;;;6187870;23;19912;-89
2022/02/17 04:37:01;;;;;;;;;;;10.20;95.50;;;;;;6187615;23;19987;-88
2022/02/17 04:39:27;;;;;;;;;;;10.20;95.40;;;;;;6187398;23;19904;-88
2022/02/17 04:44:40;;;;;;;;;;;10.20;95.80;;;;;;6188727;23;19911;-90
2022/02/17 04:47:06;;;;;;;;;;;10.30;95.80;;;;;;6187563;23;19904;-89
2022/02/17 04:49:50;;;;;;;;;;;10.30;96.00;;;;;;6187400;23;19958;-88
2022/02/17 04:52:15;;;;;;;;;;;10.30;96.00;;;;;;6185132;23;19962;-88
2022/02/17 04:54:41;;;;;;;;;;;10.30;95.80;;;;;;6186942;23;19935;-88
2022/02/17 04:57:07;;;;;;;;;;;10.20;95.80;;;;;;6186558;23;19904;-88
2022/02/17 04:59:35;;;;;;;;;;;10.30;95.70;;;;;;6186166;23;19916;-88
2022/02/17 05:02:04;;;;;;;;;;;10.30;95.60;;;;;;6187024;23;20325;-88
2022/02/17 05:04:35;;;;;;;;;;;10.20;95.30;;;;;;6186876;23;20294;-88
2022/02/17 05:07:03;;;;;;;;;;;10.20;95.20;;;;;;6187558;23;19912;-88
2022/02/17 05:09:29;;;;;;;;;;;10.20;95.00;;;;;;6187128;23;19911;-88
2022/02/17 05:11:58;;;;;;;;;;;10.20;94.80;;;;;;6188321;23;19912;-89
2022/02/17 05:14:23;;;;;;;;;;;10.20;94.50;;;;;;6187572;23;19908;-89
2022/02/17 05:16:51;;;;;;;;;;;10.20;94.60;;;;;;6189598;23;19911;-88
2022/02/17 05:19:20;;;;;;;;;;;10.20;94.80;;;;;;6213367;23;19960;-87
2022/02/17 05:21:45;;;;;;;;;;;10.20;94.80;;;;;;6188793;23;19907;-88
2022/02/17 05:24:13;;;;;;;;;;;10.20;94.60;;;;;;6212993;23;19916;-88
2022/02/17 05:26:40;;;;;;;;;;;10.20;94.70;;;;;;6211267;23;19963;-88
2022/02/17 05:29:08;;;;;;;;;;;10.20;94.80;;;;;;6189302;23;19912;-88
2022/02/17 05:31:33;;;;;;;;;;;10.20;94.80;;;;;;6188901;23;19908;-88
2022/02/17 05:33:59;;;;;;;;;;;10.20;95.00;;;;;;6188194;23;19909;-88
2022/02/17 05:36:30;;;;;;;;;;;10.20;95.10;;;;;;6188665;23;19954;-88
2022/02/17 05:39:12;;;;;;;;;;;10.20;95.00;;;;;;6188893;23;19904;-89
2022/02/17 05:42:01;;;;;;;;;;;10.20;95.30;;;;;;6166286;23;19936;-91
2022/02/17 05:44:34;;;;;;;;;;;10.20;95.90;;;;;;6168990;23;19908;-90
2022/02/17 05:47:06;;;;;;;;;;;10.10;96.60;;;;;;6189257;23;20342;-91
2022/02/17 05:49:32;;;;;;;;;;;10.00;97.00;;;;;;6189767;23;19911;-90
2022/02/17 05:52:06;;;;;;;;;;;9.80;97.00;;;;;;6189323;23;19912;-93
2022/02/17 05:54:40;;;;;;;;;;;9.60;97.30;;;;;;6189340;23;19979;-92
2022/02/17 05:57:16;;;;;;;;;;;9.50;97.60;;;;;;6189120;23;19974;-92
2022/02/17 06:00:08;;;;;;;;;;;9.40;97.50;;;;;;6188846;23;19917;-93
2022/02/17 06:02:44;;;;;;;;;;;9.30;97.60;;;;;;6189130;23;19904;-91
2022/02/17 06:05:10;;;;;;;;;;;9.20;97.80;;;;;;6189310;23;19912;-93
2022/02/17 06:07:44;;;;;;;;;;;9.10;97.80;;;;;;6188871;23;19905;-92
2022/02/17 06:10:11;;;;;;;;;;;9.00;97.80;;;;;;6188993;23;20223;-91
2022/02/17 06:12:43;;;;;;;;;;;8.90;97.90;;;;;;6188762;23;19909;-91
2022/02/17 06:15:20;;;;;;;;;;;;;;;;;;;;;
2022/02/17 06:17:56;;;;;;;;;;;8.90;98.20;;;;;;6192250;23;19951;-93
2022/02/17 06:20:32;;;;;;;;;;;8.80;98.20;;;;;;6174645;23;19908;-92
2022/02/17 06:23:01;;;;;;;;;;;8.80;98.00;;;;;;6172858;23;19940;-89
2022/02/17 06:25:34;;;;;;;;;;;8.80;98.00;;;;;;6196053;23;19918;-92
2022/02/17 06:28:27;;;;;;;;;;;8.80;97.90;;;;;;6167538;23;19931;-93
2022/02/17 06:30:54;;;;;;;;;;;8.80;97.80;;;;;;6194078;23;19911;-91
2022/02/17 06:33:39;;;;;;;;;;;8.80;97.90;;;;;;6208612;23;20315;-89
2022/02/17 06:36:15;;;;;;;;;;;;;;;;;;;;;
2022/02/17 06:38:44;;;;;;;;;;;8.80;97.40;;;;;;6205930;23;19904;-90
2022/02/17 06:41:16;;;;;;;;;;;8.80;97.20;;;;;;6200593;23;19904;-89
2022/02/17 06:43:51;;;;;;;;;;;;;;;;;;;;;
2022/02/17 06:46:18;;;;;;;;;;;8.80;96.60;;;;;;6195960;23;19935;-91
2022/02/17 06:51:33;;;;;;;;;;;8.80;96.20;;;;;;6208133;23;19900;-90
2022/02/17 06:54:14;;;;;;;;;;;;;;;;;;;;;
2022/02/17 06:57:05;;;;;;;;;;;8.80;96.00;;;;;;6214563;23;19919;-89
2022/02/17 06:59:33;;;;;;;;;;;8.90;95.20;;;;;;6204711;23;20043;-90
2022/02/17 07:02:22;;;;;;;;;;;8.90;95.30;;;;;;6164375;23;19912;-90
2022/02/17 07:08:46;;;;;;;;;;;;;;;;;;;;;
2022/02/17 07:11:38;;;;;;;;;;;;;;;;;;;;;
2022/02/17 07:14:21;;;;;;;;;;;;;;;;;;;;;
2022/02/17 07:17:03;;;;;;;;;;;9.00;94.40;;;;;;6189742;23;19983;-92
2022/02/17 07:19:31;;;;;;;;;;;9.00;93.80;;;;;;6163364;23;19909;-91
2022/02/17 07:22:27;;;;;;;;;;;;;;;;;;;;;
2022/02/17 07:25:24;;;;;;;;;;;9.00;93.30;;;;;;6179239;23;19983;-90
2022/02/17 07:28:22;;;;;;;;;;;;;;;;;;;;;
2022/02/17 07:30:59;;;;;;;;;;;;;;;;;;;;;
2022/02/17 07:33:37;;;;;;;;;;;8.90;92.30;;;;;;6188790;23;20297;-91
2022/02/17 07:36:07;;;;;;;;;;;8.90;92.40;;;;;;6187278;23;19908;-89
2022/02/17 07:41:43;;;;;;;;;;;8.90;93.90;;;;;;6182917;23;19904;-90
2022/02/17 07:44:32;;;;;;;;;;;8.90;94.60;;;;;;6164250;23;19916;-88
2022/02/17 07:47:04;;;;;;;;;;;8.80;94.90;;;;;;6186610;23;19908;-91
2022/02/17 07:49:35;;;;;;;;;;;8.80;95.20;;;;;;6161987;23;19967;-89
2022/02/17 07:53:11;;;;;;;;;;;;;;;;;;;;;
2022/02/17 07:55:18;;;;;;;;;;;;;;;;;;;;;
2022/02/17 08:01:01;;;;;;;;;;;8.70;95.80;;;;;;6211467;23;19919;-90
2022/02/17 08:03:41;;;;;;;;;;;8.60;95.50;;;;;;6192632;23;19904;-91
2022/02/17 08:06:07;;;;;;;;;;;8.60;95.50;;;;;;6190384;23;19943;-91
2022/02/17 08:11:49;;;;;;;;;;;8.80;95.20;;;;;;6219234;23;20293;-90
2022/02/17 08:14:31;;;;;;;;;;;;;;;;;;;;;
2022/02/17 08:17:09;;;;;;;;;;;8.90;94.70;;;;;;6219935;23;19987;-90
2022/02/17 08:20:16;;;;;;;;;;;8.90;94.60;;;;;;6194280;23;20318;-93
2022/02/17 08:28:54;;;;;;;;;;;9.00;93.60;;;;;;6223020;23;19919;-92
2022/02/17 08:31:39;;;;;;;;;;;9.00;93.10;;;;;;6211258;23;19919;-91
2022/02/17 08:34:59;;;;;;;;;;;;;;;;;;;;;
2022/02/17 08:37:19;;;;;;;;;;;9.00;93.00;;;;;;6173860;23;19912;-92
2022/02/17 08:40:07;;;;;;;;;;;9.00;92.90;;;;;;6175452;23;19911;-91
2022/02/17 08:42:46;;;;;;;;;;;;;;;;;;;;;
2022/02/17 08:45:42;;;;;;;;;;;;;;;;;;;;;
2022/02/17 08:51:34;;;;;;;;;;;;;;;;;;;;;
2022/02/17 08:57:41;;;;;;;;;;;9.10;93.10;;;;;;6152530;23;19942;-92
2022/02/17 09:09:18;;;;;;;;;;;9.20;92.20;;;;;;6221114;23;19904;-92
2022/02/17 09:11:46;;;;;;;;;;;9.20;92.10;;;;;;6174362;23;20003;-93
2022/02/17 09:20:29;;;;;;;;;;;9.30;92.10;;;;;;6216695;23;19904;-93
2022/02/17 09:23:25;;;;;;;;;;;;;;;;;;;;;
2022/02/17 09:26:19;;;;;;;;;;;9.30;91.80;;;;;;6205894;23;19979;-92
2022/02/17 09:28:50;;;;;;;;;;;9.30;91.80;;;;;;6214232;23;19954;-94
2022/02/17 09:34:45;;;;;;;;;;;9.30;90.90;;;;;;6219465;23;19936;-92
2022/02/17 09:40:46;;;;;;;;;;;9.40;90.20;;;;;;6221672;23;19903;-92
2022/02/17 09:49:07;;;;;;;;;;;9.40;89.00;;;;;;6175912;23;19942;-93
2022/02/17 09:52:01;;;;;;;;;;;9.40;89.50;;;;;;6221630;23;19983;-92
2022/02/17 09:54:32;;;;;;;;;;;9.40;87.60;;;;;;6203826;23;19918;-92
2022/02/17 09:57:08;;;;;;;;;;;9.50;87.40;;;;;;6218499;23;19900;-90
2022/02/17 09:59:50;;;;;;;;;;;;;;;;;;;;;
2022/02/17 10:06:02;;;;;;;;;;;9.60;86.50;;;;;;6195749;23;19908;-93
2022/02/17 10:09:02;;;;;;;;;;;9.60;85.90;;;;;;6181068;23;19944;-92
2022/02/17 10:14:58;;;;;;;;;;;9.70;86.80;;;;;;6174631;23;19946;-92
2022/02/17 10:21:07;;;;;;;;;;;9.80;87.10;;;;;;6174646;23;19939;-91
2022/02/17 10:27:01;;;;;;;;;;;;;;;;;;;;;
2022/02/17 10:29:56;;;;;;;;;;;9.90;87.80;;;;;;6127313;23;19905;-90
2022/02/17 10:32:32;;;;;;;;;;;9.90;87.60;;;;;;6095257;23;19916;-91
2022/02/17 10:35:33;;;;;;;;;;;10.00;88.20;;;;;;6128755;23;19916;-93
2022/02/17 10:38:50;;;;;;;;;;;;;;;;;;;;;
2022/02/17 10:41:31;;;;;;;;;;;10.10;88.60;;;;;;6120885;23;19913;-91
2022/02/17 10:47:44;;;;;;;;;;;10.20;84.90;;;;;;6224108;23;19904;-92
2022/02/17 10:50:52;;;;;;;;;;;;;;;;;;;;;
2022/02/17 10:56:32;;;;;;;;;;;10.00;82.70;;;;;;6210602;23;19942;-91
2022/02/17 11:00:00;;;;;;;;;;;10.00;83.60;;;;;;6156806;23;19904;-91
2022/02/17 11:02:14;;;;;;;;;;;10.10;83.00;;;;;;6163174;23;19959;-92
2022/02/17 11:04:58;;;;;;;;;;;10.10;82.90;;;;;;6124319;23;19952;-92
2022/02/17 11:08:11;;;;;;;;;;;10.20;82.90;;;;;;6147885;23;20300;-89
2022/02/17 11:11:04;;;;;;;;;;;;;;;;;;;;;
2022/02/17 11:16:54;;;;;;;;;;;10.20;82.30;;;;;;6126225;23;19905;-92
2022/02/17 11:19:42;;;;;;;;;;;;;;;;;;;;;
2022/02/17 11:22:33;;;;;;;;;;;10.20;82.70;;;;;;6136446;23;19996;-89
2022/02/17 11:25:05;;;;;;;;;;;10.30;83.30;;;;;;6134597;23;20330;-91
2022/02/17 11:28:00;;;;;;;;;;;;;;;;;;;;;
2022/02/17 11:30:53;;;;;;;;;;;10.30;81.70;;;;;;6184937;23;19900;-90
2022/02/17 11:36:25;;;;;;;;;;;10.40;81.40;;;;;;6142631;23;19893;-91
2022/02/17 11:38:55;;;;;;;;;;;10.40;81.60;;;;;;6138769;23;19904;-91
2022/02/17 11:41:31;;;;;;;;;;;10.40;82.50;;;;;;6132698;23;19975;-92
2022/02/17 11:44:32;;;;;;;;;;;10.40;82.60;;;;;;6128178;23;19960;-92
2022/02/17 11:47:15;;;;;;;;;;;10.50;82.90;;;;;;6101661;23;20014;-91
2022/02/17 11:49:50;;;;;;;;;;;10.50;81.20;;;;;;6133283;23;19915;-91
2022/02/17 11:52:31;;;;;;;;;;;10.50;81.00;;;;;;6132251;23;20307;-90
2022/02/17 11:58:38;;;;;;;;;;;10.60;81.80;;;;;;6138853;23;19905;-90
2022/02/17 12:01:37;;;;;;;;;;;10.70;82.30;;;;;;6032552;23;19917;-90
2022/02/17 12:04:17;;;;;;;;;;;10.70;82.10;;;;;;6068533;23;19906;-90
2022/02/17 12:06:51;;;;;;;;;;;10.80;81.00;;;;;;6127936;23;19971;-91
2022/02/17 12:09:40;;;;;;;;;;;10.80;81.30;;;;;;6129042;23;20311;-90
2022/02/17 12:12:44;;;;;;;;;;;10.70;81.20;;;;;;6159713;23;19915;-89
2022/02/17 12:18:59;;;;;;;;;;;10.80;82.20;;;;;;6012506;23;19910;-91
2022/02/17 12:21:35;;;;;;;;;;;10.80;82.40;;;;;;5983202;23;19927;-91
2022/02/17 12:27:18;;;;;;;;;;;11.00;83.00;;;;;;6118841;23;19990;-90
2022/02/17 12:30:11;;;;;;;;;;;11.00;82.20;;;;;;6134611;23;19912;-89
2022/02/17 12:32:41;;;;;;;;;;;11.00;81.50;;;;;;6150569;23;19909;-93
2022/02/17 12:35:39;;;;;;;;;;;11.00;81.00;;;;;;6148286;23;19929;-89
2022/02/17 12:38:11;;;;;;;;;;;10.90;80.40;;;;;;6151446;23;19905;-90
2022/02/17 12:41:00;;;;;;;;;;;10.80;79.80;;;;;;6143580;23;19912;-90
2022/02/17 12:43:38;;;;;;;;;;;;;;;;;;;;;
2022/02/17 12:52:26;;;;;;;;;;;10.70;81.00;;;;;;6153631;23;19944;-89
2022/02/17 12:55:07;;;;;;;;;;;10.70;81.10;;;;;;6135107;23;19909;-92
2022/02/17 13:03:30;;;;;;;;;;;10.70;80.80;;;;;;6170488;23;19889;-90
2022/02/17 13:06:35;;;;;;;;;;;10.70;80.20;;;;;;6167822;23;19893;-90
2022/02/17 13:09:46;;;;;;;;;;;;;;;;;;;;;
2022/02/17 13:15:31;;;;;;;;;;;10.90;81.00;;;;;;6155090;23;19937;-90
2022/02/17 13:21:22;;;;;;;;;;;10.80;79.90;;;;;;6146570;23;19920;-93
2022/02/17 13:24:14;;;;;;;;;;;10.80;80.60;;;;;;6163231;23;19908;-88
2022/02/17 13:26:55;;;;;;;;;;;10.80;80.70;;;;;;6162327;23;19916;-90
2022/02/17 13:29:31;;;;;;;;;;;10.80;81.00;;;;;;6165582;23;19975;-92
2022/02/17 13:32:21;;;;;;;;;;;10.80;81.20;;;;;;6138529;23;20341;-90
2022/02/17 13:35:10;;;;;;;;;;;10.80;81.60;;;;;;6162997;23;19983;-91
2022/02/17 13:37:56;;;;;;;;;;;10.80;81.80;;;;;;6165895;23;19909;-91
2022/02/17 13:40:43;;;;;;;;;;;10.80;82.30;;;;;;6162180;23;19947;-90
2022/02/17 13:43:41;;;;;;;;;;;;;;;;;;;;;
2022/02/17 13:49:39;;;;;;;;;;;10.80;82.10;;;;;;6169835;23;19905;-91
2022/02/17 13:52:30;;;;;;;;;;;10.80;82.10;;;;;;6147685;23;19955;-91
2022/02/17 13:58:17;;;;;;;;;;;;;;;;;;;;;
2022/02/17 14:01:04;;;;;;;;;;;10.80;82.00;;;;;;6190385;23;19999;-90
2022/02/17 14:07:07;;;;;;;;;;;;;;;;;;;;;
2022/02/17 14:12:42;;;;;;;;;;;10.90;80.90;;;;;;6177196;23;20234;-90
2022/02/17 14:15:34;;;;;;;;;;;10.90;80.70;;;;;;6163509;23;19908;-90
2022/02/17 14:18:30;;;;;;;;;;;10.90;80.00;;;;;;6165990;23;19950;-89
2022/02/17 14:23:51;;;;;;;;;;;10.90;80.60;;;;;;6182487;23;19904;-90
2022/02/17 14:29:40;;;;;;;;;;;11.00;81.30;;;;;;6143858;23;19905;-91
2022/02/17 14:35:10;;;;;;;;;;;11.00;81.90;;;;;;6174668;23;19939;-91
2022/02/17 14:37:46;;;;;;;;;;;10.90;82.30;;;;;;6165180;23;19904;-90
2022/02/17 14:40:46;;;;;;;;;;;10.80;81.90;;;;;;6155955;23;19892;-92
2022/02/17 14:43:42;;;;;;;;;;;;;;;;;;;;;
2022/02/17 14:46:11;;;;;;;;;;;10.60;81.10;;;;;;6214463;23;19900;-91
2022/02/17 14:49:00;;;;;;;;;;;;;;;;;;;;;
2022/02/17 14:54:39;;;;;;;;;;;10.30;81.40;;;;;;6173523;23;19915;-90
2022/02/17 14:57:10;;;;;;;;;;;10.30;82.50;;;;;;6163853;23;19913;-90
2022/02/17 15:02:27;;;;;;;;;;;10.30;82.50;;;;;;6168655;23;19904;-90
2022/02/17 15:11:01;;;;;;;;;;;10.20;80.00;;;;;;6165422;23;19966;-90
2022/02/17 15:13:34;;;;;;;;;;;10.10;79.60;;;;;;6164122;23;20002;-90
2022/02/17 15:16:17;;;;;;;;;;;10.00;79.90;;;;;;6164392;23;19936;-90
2022/02/17 15:18:54;;;;;;;;;;;10.00;80.40;;;;;;6188387;23;19955;-91
2022/02/17 15:24:18;;;;;;;;;;;;;;;;;;;;;
2022/02/17 15:27:07;;;;;;;;;;;9.80;81.40;;;;;;6189842;23;19979;-89
2022/02/17 15:29:43;;;;;;;;;;;;;;;;;;;;;
2022/02/17 15:35:15;;;;;;;;;;;9.80;81.80;;;;;;6189058;23;19908;-89
2022/02/17 15:37:51;;;;;;;;;;;;;;;;;;;;;
2022/02/17 15:40:38;;;;;;;;;;;9.70;82.40;;;;;;6189427;23;19994;-90
2022/02/17 15:43:48;;;;;;;;;;;9.70;82.70;;;;;;6188725;23;19911;-90
2022/02/17 15:46:31;;;;;;;;;;;9.70;83.30;;;;;;6200064;23;19931;-90
2022/02/17 15:49:19;;;;;;;;;;;9.70;83.50;;;;;;6212907;23;19908;-90
2022/02/17 15:52:10;;;;;;;;;;;;;;;;;;;;;
2022/02/17 15:55:14;;;;;;;;;;;9.70;83.60;;;;;;6212679;23;19919;-91
2022/02/17 15:57:52;;;;;;;;;;;9.70;83.90;;;;;;6206534;23;19892;-91
2022/02/17 16:00:26;;;;;;;;;;;9.60;84.20;;;;;;6202268;23;19916;-90
2022/02/17 16:04:04;;;;;;;;;;;;;;;;;;;;;
2022/02/17 16:06:16;;;;;;;;;;;9.60;84.70;;;;;;6176262;23;20322;-88
2022/02/17 16:08:56;;;;;;;;;;;9.60;84.80;;;;;;6188578;23;19955;-90
2022/02/17 16:12:00;;;;;;;;;;;9.60;85.00;;;;;;6189079;23;19913;-91
2022/02/17 16:14:45;;;;;;;;;;;9.60;84.70;;;;;;6115941;23;19901;-89
2022/02/17 16:19:52;;;;;;;;;;;9.50;85.00;;;;;;6234623;23;19920;-91
2022/02/17 16:22:29;;;;;;;;;;;9.50;85.00;;;;;;6192427;23;19934;-91
2022/02/17 16:25:18;;;;;;;;;;;9.40;84.60;;;;;;6171732;23;19912;-90
2022/02/17 16:28:17;;;;;;;;;;;9.40;84.70;;;;;;6194856;23;19943;-91
2022/02/17 16:33:42;;;;;;;;;;;9.40;85.00;;;;;;6172374;23;19962;-89
2022/02/17 16:36:34;;;;;;;;;;;9.40;84.60;;;;;;6167105;23;19941;-91
2022/02/17 16:42:18;;;;;;;;;;;9.40;84.60;;;;;;6219670;23;19904;-91
2022/02/17 16:44:47;;;;;;;;;;;9.30;84.70;;;;;;6199692;23;19904;-91
2022/02/17 16:48:03;;;;;;;;;;;9.30;84.30;;;;;;6195080;23;19964;-91
2022/02/17 16:50:30;;;;;;;;;;;;;;;;;;;;;
2022/02/17 16:53:13;;;;;;;;;;;9.30;84.40;;;;;;6220793;23;20027;-89
2022/02/17 16:55:53;;;;;;;;;;;9.20;84.50;;;;;;6169977;23;19992;-90
2022/02/17 16:58:23;;;;;;;;;;;9.20;84.40;;;;;;6195025;23;19958;-89
2022/02/17 17:00:58;;;;;;;;;;;9.20;84.50;;;;;;6193126;23;19958;-91
2022/02/17 17:03:29;;;;;;;;;;;9.20;84.60;;;;;;6193227;23;19904;-90
2022/02/17 17:05:59;;;;;;;;;;;9.20;84.80;;;;;;6192537;23;20334;-89
2022/02/17 17:08:31;;;;;;;;;;;9.20;84.90;;;;;;6168565;23;20307;-89
2022/02/17 17:11:00;;;;;;;;;;;9.10;85.00;;;;;;6192307;23;19985;-91
2022/02/17 17:13:38;;;;;;;;;;;;;;;;;;;;;
2022/02/17 17:16:16;;;;;;;;;;;;;;;;;;;;;
2022/02/17 17:18:50;;;;;;;;;;;9.00;85.10;;;;;;6219105;23;19994;-89
2022/02/17 17:21:26;;;;;;;;;;;;;;;;;;;;;
2022/02/17 17:24:14;;;;;;;;;;;9.00;85.30;;;;;;6219980;23;19978;-89
2022/02/17 17:26:40;;;;;;;;;;;9.00;85.40;;;;;;6193209;23;19908;-89
2022/02/17 17:29:06;;;;;;;;;;;8.90;85.30;;;;;;6192152;23;19915;-88
2022/02/17 17:32:00;;;;;;;;;;;8.90;85.40;;;;;;6193336;23;19958;-88
2022/02/17 17:34:33;;;;;;;;;;;8.80;85.50;;;;;;6193137;23;19908;-89
2022/02/17 17:37:02;;;;;;;;;;;8.80;85.80;;;;;;6193864;23;19908;-90
2022/02/17 17:39:30;;;;;;;;;;;8.80;85.90;;;;;;6168864;23;19915;-90
2022/02/17 17:47:28;;;;;;;;;;;8.70;86.30;;;;;;6210163;23;19937;-90
2022/02/17 17:50:19;;;;;;;;;;;8.70;86.70;;;;;;6245438;23;19892;-88
2022/02/17 17:53:30;;;;;;;;;;;8.70;86.90;;;;;;6202051;23;19923;-92
2022/02/17 17:56:00;;;;;;;;;;;8.70;87.20;;;;;;6241673;23;19908;-89
2022/02/17 17:58:29;;;;;;;;;;;8.60;87.30;;;;;;6224485;23;19914;-89
2022/02/17 18:00:55;;;;;;;;;;;8.60;87.60;;;;;;6221545;23;19904;-88
2022/02/17 18:06:37;;;;;;;;;;;;;;;;;;;;;
2022/02/17 18:09:12;;;;;;;;;;;8.60;87.80;;;;;;6106206;23;19986;-89
2022/02/17 18:11:37;;;;;;;;;;;8.60;87.90;;;;;;6194427;23;19907;-89
2022/02/17 18:14:06;;;;;;;;;;;8.60;87.90;;;;;;6194937;23;19961;-88
2022/02/17 18:16:46;;;;;;;;;;;8.60;88.10;;;;;;6194132;23;19915;-89
2022/02/17 18:19:12;;;;;;;;;;;8.60;88.10;;;;;;6188886;23;19916;-88
2022/02/17 18:21:49;;;;;;;;;;;8.60;88.20;;;;;;6189635;23;20383;-88
2022/02/17 18:27:26;;;;;;;;;;;8.60;88.30;;;;;;6189380;23;19983;-89
2022/02/17 18:30:04;;;;;;;;;;;8.60;88.20;;;;;;6175936;23;19904;-89
2022/02/17 18:32:42;;;;;;;;;;;;;;;;;;;;;
2022/02/17 18:35:08;;;;;;;;;;;8.70;88.30;;;;;;6193737;23;19942;-90
2022/02/17 18:37:43;;;;;;;;;;;8.70;88.40;;;;;;6190723;23;19904;-89
2022/02/17 18:40:30;;;;;;;;;;;;;;;;;;;;;
2022/02/17 18:43:33;;;;;;;;;;;;;;;;;;;;;
2022/02/17 18:46:03;;;;;;;;;;;8.60;88.40;;;;;;6198111;23;20317;-89
2022/02/17 18:48:34;;;;;;;;;;;8.60;88.60;;;;;;6195301;23;19940;-89
2022/02/17 18:51:25;;;;;;;;;;;8.60;88.70;;;;;;6199046;23;19908;-90
2022/02/17 18:53:53;;;;;;;;;;;8.60;88.70;;;;;;6198732;23;19919;-90
2022/02/17 18:56:27;;;;;;;;;;;8.60;88.80;;;;;;6197577;23;20203;-89
2022/02/17 18:59:26;;;;;;;;;;;8.60;89.00;;;;;;6197016;23;19905;-89
2022/02/17 19:02:08;;;;;;;;;;;8.60;89.10;;;;;;6211327;23;19919;-88
2022/02/17 19:04:37;;;;;;;;;;;8.60;89.10;;;;;;6212110;23;19904;-88
2022/02/17 19:07:10;;;;;;;;;;;8.60;89.20;;;;;;6209433;23;19904;-88